Time;durP1;ratioP1;P1;durP2;ratioP2;P2;SDS_P1;SDS_P2;PMS_P1;PMS_P2;Temp;Humidity;BMP_temperature;BMP_pressure;BME280_temperature;BME280_humidity;BME280_pressure;Samples;Min_cycle;Max_cycle;Signal;HPM_P1;HPM_P2
2022/07/30 00:01:18;;;;;;;;;;;;;;;;;;6296819;22;19914;-84
2022/07/30 00:03:46;;;;;;;;;;;;;;;;;;6323262;22;19946;-84
2022/07/30 00:06:13;;;;;;;;;;;;;;;;;;6294684;22;19918;-84
2022/07/30 00:08:39;;;;;;;;;;;;;;;;;;6298523;22;19946;-84
2022/07/30 00:11:05;;;;;;;;;;;;;;;;;;6323202;22;19918;-85
2022/07/30 00:13:31;;;;;;;;;;;;;;;;;;6295944;22;19914;-84
2022/07/30 00:15:58;;;;;;;;;;;;;;;;;;6293198;22;19914;-84
2022/07/30 00:18:26;;;;;;;;;;;;;;;;;;6293725;22;19914;-85
2022/07/30 00:20:53;;;;;;;;;;;;;;;;;;6318337;22;19910;-84
2022/07/30 00:23:38;;;;;;;;;;;;;;;;;;6299812;22;19952;-84
2022/07/30 00:26:09;;;;;;;;;;;;;;;;;;6319694;22;19922;-84
2022/07/30 00:28:54;;;;;;;;;;;;;;;;;;6297970;22;19910;-84
2022/07/30 00:31:22;;;;;;;;;;;;;;;;;;6319447;22;19964;-84
2022/07/30 00:33:50;;;;;;;;;;;;;;;;;;6320932;22;19975;-85
2022/07/30 00:36:32;;;;;;;;;;;;;;;;;;6325580;22;20230;-84
2022/07/30 00:38:59;;;;;;;;;;;;;;;;;;6317181;22;19914;-84
2022/07/30 00:41:26;;;;;;;;;;;;;;;;;;6295499;22;19920;-84
2022/07/30 00:43:52;;;;;;;;;;;;;;;;;;6294150;22;19950;-84
2022/07/30 00:46:20;;;;;;;;;;;;;;;;;;6321517;22;20297;-85
2022/07/30 00:48:47;;;;;;;;;;;;;;;;;;6322087;22;19921;-84
2022/07/30 00:51:15;;;;;;;;;;;;;;;;;;6290290;22;20370;-84
2022/07/30 00:53:41;;;;;;;;;;;;;;;;;;6293039;22;19934;-84
2022/07/30 00:56:07;;;;;;;;;;;;;;;;;;6291981;22;19949;-84
2022/07/30 00:58:35;;;;;;;;;;;;;;;;;;6294409;22;20280;-84
2022/07/30 01:01:02;;;;;;;;;;;;;;;;;;6289592;22;19914;-84
2022/07/30 01:03:28;;;;;;;;;;;;;;;;;;6318625;22;19918;-83
2022/07/30 01:05:55;;;;;;;;;;;;;;;;;;6292378;22;19981;-84
2022/07/30 01:08:46;;;;;;;;;;;;;;;;;;6286559;22;20030;-84
2022/07/30 01:11:12;;;;;;;;;;;;;;;;;;6259648;22;19921;-84
2022/07/30 01:13:38;;;;;;;;;;;;;;;;;;6262012;22;20358;-84
2022/07/30 01:16:06;;;;;;;;;;;;;;;;;;6285732;22;19918;-84
2022/07/30 01:21:21;;;;;;;;;;;;;;;;;;6284444;22;20340;-84
2022/07/30 01:23:47;;;;;;;;;;;;;;;;;;6261193;22;19915;-84
2022/07/30 01:26:13;;;;;;;;;;;;;;;;;;6284459;22;20568;-84
2022/07/30 01:28:43;;;;;;;;;;;;;;;;;;6261882;22;19918;-84
2022/07/30 01:31:09;;;;;;;;;;;;;;;;;;6259472;22;19972;-84
2022/07/30 01:33:36;;;;;;;;;;;;;;;;;;6237816;22;19919;-84
2022/07/30 01:36:04;;;;;;;;;;;;;;;;;;6259617;22;19997;-84
2022/07/30 01:38:30;;;;;;;;;;;;;;;;;;6261359;22;20008;-84
2022/07/30 01:40:59;;;;;;;;;;;;;;;;;;6257962;22;19918;-84
2022/07/30 01:43:26;;;;;;;;;;;;;;;;;;6291712;22;20033;-84
2022/07/30 01:45:56;;;;;;;;;;;;;;;;;;6266445;22;19921;-85
2022/07/30 01:48:39;;;;;;;;;;;;;;;;;;6260339;22;19915;-84
2022/07/30 01:51:06;;;;;;;;;;;;;;;;;;6232273;22;19915;-85
2022/07/30 01:53:52;;;;;;;;;;;;;;;;;;6269490;22;19925;-85
2022/07/30 01:56:23;;;;;;;;;;;;;;;;;;6292075;22;19914;-85
2022/07/30 01:59:03;;;;;;;;;;;;;;;;;;6204689;23;19986;-84
2022/07/30 02:01:30;;;;;;;;;;;;;;;;;;6229560;23;20434;-84
2022/07/30 02:03:58;;;;;;;;;;;;;;;;;;6200386;23;19923;-84
2022/07/30 02:06:25;;;;;;;;;;;;;;;;;;6228606;23;19915;-84
2022/07/30 02:08:54;;;;;;;;;;;;;;;;;;6227210;23;19915;-84
2022/07/30 02:14:17;;;;;;;;;;;;;;;;;;6198067;23;20405;-84
2022/07/30 02:17:00;;;;;;;;;;;;;;;;;;6141377;23;20022;-84
2022/07/30 02:19:30;;;;;;;;;;;;;;;;;;6163860;23;20094;-84
2022/07/30 02:21:56;;;;;;;;;;;;;;;;;;6135638;23;20328;-84
2022/07/30 02:24:29;;;;;;;;;;;;;;;;;;6164601;23;19919;-84
2022/07/30 02:27:10;;;;;;;;;;;;;;;;;;6130704;23;19975;-84
2022/07/30 02:29:37;;;;;;;;;;;;;;;;;;6143611;23;20292;-84
2022/07/30 02:32:04;;;;;;;;;;;;;;;;;;6160477;23;20637;-85
2022/07/30 02:34:32;;;;;;;;;;;;;;;;;;6162604;23;19927;-84
2022/07/30 02:37:28;;;;;;;;;;;;;;;;;;6135037;23;20000;-84
2022/07/30 02:39:54;;;;;;;;;;;;;;;;;;6107713;23;19924;-84
2022/07/30 02:42:35;;;;;;;;;;;;;;;;;;6134422;23;19917;-84
2022/07/30 02:45:02;;;;;;;;;;;;;;;;;;6108907;23;19916;-84
2022/07/30 02:47:29;;;;;;;;;;;;;;;;;;6117246;23;20269;-84
2022/07/30 02:49:57;;;;;;;;;;;;;;;;;;6160914;23;19916;-85
2022/07/30 02:52:24;;;;;;;;;;;;;;;;;;6163974;23;19923;-84
2022/07/30 02:54:51;;;;;;;;;;;;;;;;;;6165313;23;20265;-83
2022/07/30 02:57:18;;;;;;;;;;;;;;;;;;6161747;23;19923;-84
2022/07/30 02:59:45;;;;;;;;;;;;;;;;;;6142461;23;19951;-84
2022/07/30 03:02:11;;;;;;;;;;;;;;;;;;6136645;23;19923;-84
2022/07/30 03:04:39;;;;;;;;;;;;;;;;;;6139029;23;19911;-84
2022/07/30 03:07:12;;;;;;;;;;;;;;;;;;6137283;23;19919;-84
2022/07/30 03:09:39;;;;;;;;;;;;;;;;;;6139943;23;20086;-84
2022/07/30 03:12:12;;;;;;;;;;;;;;;;;;6138572;23;19994;-84
2022/07/30 03:14:39;;;;;;;;;;;;;;;;;;6194946;23;20202;-84
2022/07/30 03:17:06;;;;;;;;;;;;;;;;;;6195641;23;20686;-84
2022/07/30 03:19:34;;;;;;;;;;;;;;;;;;6201102;23;19986;-84
2022/07/30 03:22:02;;;;;;;;;;;;;;;;;;6221892;23;19922;-84
2022/07/30 03:24:28;;;;;;;;;;;;;;;;;;6200611;23;19915;-84
2022/07/30 03:26:57;;;;;;;;;;;;;;;;;;6235409;22;19947;-84
2022/07/30 03:29:23;;;;;;;;;;;;;;;;;;6290066;22;19914;-84
2022/07/30 03:31:50;;;;;;;;;;;;;;;;;;6288348;22;19962;-84
2022/07/30 03:34:16;;;;;;;;;;;;;;;;;;6285938;22;20133;-84
2022/07/30 03:36:44;;;;;;;;;;;;;;;;;;6263716;22;19972;-84
2022/07/30 03:39:10;;;;;;;;;;;;;;;;;;6233455;22;20041;-84
2022/07/30 03:41:37;;;;;;;;;;;;;;;;;;6266025;22;20288;-84
2022/07/30 03:44:03;;;;;;;;;;;;;;;;;;6291265;22;19915;-84
2022/07/30 03:46:36;;;;;;;;;;;;;;;;;;6292195;22;19960;-84
2022/07/30 03:49:04;;;;;;;;;;;;;;;;;;6289042;22;20287;-84
2022/07/30 03:51:41;;;;;;;;;;;;;;;;;;6294604;22;20232;-84
2022/07/30 03:54:08;;;;;;;;;;;;;;;;;;6312935;22;19919;-84
2022/07/30 03:56:35;;;;;;;;;;;;;;;;;;6298359;22;19911;-84
2022/07/30 03:59:02;;;;;;;;;;;;;;;;;;6323584;22;19956;-84
2022/07/30 04:01:28;;;;;;;;;;;;;;;;;;6323962;22;19910;-84
2022/07/30 04:03:55;;;;;;;;;;;;;;;;;;6296500;22;20338;-84
2022/07/30 04:06:23;;;;;;;;;;;;;;;;;;6325530;22;20033;-84
2022/07/30 04:08:50;;;;;;;;;;;;;;;;;;6297596;22;19916;-84
2022/07/30 04:11:17;;;;;;;;;;;;;;;;;;6296997;22;19953;-84
2022/07/30 04:13:44;;;;;;;;;;;;;;;;;;6291832;22;20313;-84
2022/07/30 04:16:10;;;;;;;;;;;;;;;;;;6290834;22;20243;-84
2022/07/30 04:18:37;;;;;;;;;;;;;;;;;;6293300;22;19919;-84
2022/07/30 04:21:03;;;;;;;;;;;;;;;;;;6292461;22;20043;-84
2022/07/30 04:23:36;;;;;;;;;;;;;;;;;;6292529;22;19941;-84
2022/07/30 04:26:04;;;;;;;;;;;;;;;;;;6291438;22;20601;-84
2022/07/30 04:28:31;;;;;;;;;;;;;;;;;;6293625;22;20009;-84
2022/07/30 04:30:59;;;;;;;;;;;;;;;;;;6319523;22;19914;-84
2022/07/30 04:33:37;;;;;;;;;;;;;;;;;;6322365;22;19919;-84
2022/07/30 04:36:04;;;;;;;;;;;;;;;;;;6316662;22;19915;-84
2022/07/30 04:38:31;;;;;;;;;;;;;;;;;;6292475;22;19993;-83
2022/07/30 04:41:12;;;;;;;;;;;;;;;;;;6223846;23;19922;-84
2022/07/30 04:43:38;;;;;;;;;;;;;;;;;;6175542;23;19991;-84
2022/07/30 04:46:05;;;;;;;;;;;;;;;;;;6221794;23;19920;-84
2022/07/30 04:48:33;;;;;;;;;;;;;;;;;;6172136;23;19911;-84
2022/07/30 04:51:00;;;;;;;;;;;;;;;;;;6194320;23;20010;-84
2022/07/30 04:53:38;;;;;;;;;;;;;;;;;;6226306;22;19920;-84
2022/07/30 04:56:15;;;;;;;;;;;;;;;;;;6222565;23;20447;-84
2022/07/30 04:58:48;;;;;;;;;;;;;;;;;;6223231;23;19912;-84
2022/07/30 05:01:14;;;;;;;;;;;;;;;;;;6222438;23;20404;-84
2022/07/30 05:03:43;;;;;;;;;;;;;;;;;;6197318;23;19993;-84
2022/07/30 05:06:10;;;;;;;;;;;;;;;;;;6195604;23;19919;-84
2022/07/30 05:08:38;;;;;;;;;;;;;;;;;;6226295;23;19915;-84
2022/07/30 05:11:13;;;;;;;;;;;;;;;;;;6221933;23;20333;-84
2022/07/30 05:13:41;;;;;;;;;;;;;;;;;;6224647;23;19942;-84
2022/07/30 05:16:08;;;;;;;;;;;;;;;;;;6221792;23;19916;-84
2022/07/30 05:18:41;;;;;;;;;;;;;;;;;;6258699;22;19911;-84
2022/07/30 05:21:09;;;;;;;;;;;;;;;;;;6259596;22;19942;-84
2022/07/30 05:23:34;;;;;;;;;;;;;;;;;;6290905;22;19915;-84
2022/07/30 05:26:02;;;;;;;;;;;;;;;;;;6285816;22;20020;-84
2022/07/30 05:28:29;;;;;;;;;;;;;;;;;;6288872;22;20223;-84
2022/07/30 05:30:56;;;;;;;;;;;;;;;;;;6285775;22;19914;-84
2022/07/30 05:33:26;;;;;;;;;;;;;;;;;;6288005;22;20327;-84
2022/07/30 05:35:53;;;;;;;;;;;;;;;;;;6261360;22;19979;-84
2022/07/30 05:38:20;;;;;;;;;;;;;;;;;;6287650;22;20369;-84
2022/07/30 05:40:59;;;;;;;;;;;;;;;;;;6289557;22;19989;-84
2022/07/30 05:43:27;;;;;;;;;;;;;;;;;;6265650;22;20369;-84
2022/07/30 05:45:55;;;;;;;;;;;;;;;;;;6265828;22;20357;-84
2022/07/30 05:48:22;;;;;;;;;;;;;;;;;;6265323;22;19911;-84
2022/07/30 05:50:49;;;;;;;;;;;;;;;;;;6266360;22;19911;-84
2022/07/30 05:53:17;;;;;;;;;;;;;;;;;;6268361;22;20007;-84
2022/07/30 05:55:44;;;;;;;;;;;;;;;;;;6290506;22;19917;-84
2022/07/30 05:58:11;;;;;;;;;;;;;;;;;;6262027;22;20306;-84
2022/07/30 06:00:38;;;;;;;;;;;;;;;;;;6266488;22;19990;-84
2022/07/30 06:03:05;;;;;;;;;;;;;;;;;;6264374;22;19915;-85
2022/07/30 06:05:33;;;;;;;;;;;;;;;;;;6265389;22;19926;-85
2022/07/30 06:08:00;;;;;;;;;;;;;;;;;;6288222;22;19982;-85
2022/07/30 06:10:27;;;;;;;;;;;;;;;;;;6293716;22;20366;-84
2022/07/30 06:12:54;;;;;;;;;;;;;;;;;;6286050;22;19915;-85
2022/07/30 06:15:31;;;;;;;;;;;;;;;;;;6288295;22;19915;-84
2022/07/30 06:17:58;;;;;;;;;;;;;;;;;;6288773;22;19914;-85
2022/07/30 06:20:24;;;;;;;;;;;;;;;;;;6264013;22;19914;-84
2022/07/30 06:22:50;;;;;;;;;;;;;;;;;;6290560;22;19922;-84
2022/07/30 06:25:17;;;;;;;;;;;;;;;;;;6289242;22;20028;-84
2022/07/30 06:27:44;;;;;;;;;;;;;;;;;;6266061;22;19949;-84
2022/07/30 06:30:12;;;;;;;;;;;;;;;;;;6289588;22;20323;-84
2022/07/30 06:32:38;;;;;;;;;;;;;;;;;;6290978;22;20003;-84
2022/07/30 06:35:06;;;;;;;;;;;;;;;;;;6289484;22;19914;-84
2022/07/30 06:37:32;;;;;;;;;;;;;;;;;;6291395;22;19915;-84
2022/07/30 06:39:59;;;;;;;;;;;;;;;;;;6291172;22;19921;-84
2022/07/30 06:42:25;;;;;;;;;;;;;;;;;;6291197;22;19914;-85
2022/07/30 06:44:53;;;;;;;;;;;;;;;;;;6289811;22;19946;-84
2022/07/30 06:47:19;;;;;;;;;;;;;;;;;;6288275;22;19910;-84
2022/07/30 06:49:45;;;;;;;;;;;;;;;;;;6265237;22;19978;-84
2022/07/30 06:52:12;;;;;;;;;;;;;;;;;;6291273;22;19949;-84
2022/07/30 06:54:39;;;;;;;;;;;;;;;;;;6290704;22;19923;-85
2022/07/30 06:57:05;;;;;;;;;;;;;;;;;;6287974;22;19919;-85
2022/07/30 06:59:31;;;;;;;;;;;;;;;;;;6264393;22;19993;-85
2022/07/30 07:01:58;;;;;;;;;;;;;;;;;;6262724;22;19977;-84
2022/07/30 07:04:24;;;;;;;;;;;;;;;;;;6291335;22;19918;-84
2022/07/30 07:06:52;;;;;;;;;;;;;;;;;;6263932;22;19914;-84
2022/07/30 07:09:21;;;;;;;;;;;;;;;;;;6291995;22;20235;-85
2022/07/30 07:11:48;;;;;;;;;;;;;;;;;;6265227;22;19981;-84
2022/07/30 07:14:14;;;;;;;;;;;;;;;;;;6288245;22;19923;-84
2022/07/30 07:16:50;;;;;;;;;;;;;;;;;;6267929;22;20295;-85
2022/07/30 07:19:18;;;;;;;;;;;;;;;;;;6260784;22;19921;-84
2022/07/30 07:21:44;;;;;;;;;;;;;;;;;;6289288;22;19918;-84
2022/07/30 07:24:10;;;;;;;;;;;;;;;;;;6260903;22;20327;-85
2022/07/30 07:26:38;;;;;;;;;;;;;;;;;;6292493;22;19922;-84
2022/07/30 07:29:05;;;;;;;;;;;;;;;;;;6259990;22;19926;-85
2022/07/30 07:31:32;;;;;;;;;;;;;;;;;;6286126;22;19915;-84
2022/07/30 07:34:04;;;;;;;;;;;;;;;;;;6283801;22;19968;-85
2022/07/30 07:36:31;;;;;;;;;;;;;;;;;;6289646;22;19914;-84
2022/07/30 07:38:59;;;;;;;;;;;;;;;;;;6285923;22;20579;-84
2022/07/30 07:41:26;;;;;;;;;;;;;;;;;;6290888;22;19922;-84
2022/07/30 07:43:52;;;;;;;;;;;;;;;;;;6293814;22;19989;-85
2022/07/30 07:46:18;;;;;;;;;;;;;;;;;;6288764;22;19915;-84
2022/07/30 07:48:44;;;;;;;;;;;;;;;;;;6293303;22;19914;-85
2022/07/30 07:51:10;;;;;;;;;;;;;;;;;;6288176;22;19918;-85
2022/07/30 07:53:36;;;;;;;;;;;;;;;;;;6304590;22;19953;-84
2022/07/30 07:56:03;;;;;;;;;;;;;;;;;;6292312;22;19914;-85
2022/07/30 07:58:29;;;;;;;;;;;;;;;;;;6297257;22;19941;-85
2022/07/30 08:00:55;;;;;;;;;;;;;;;;;;6292436;22;19967;-85
2022/07/30 08:03:21;;;;;;;;;;;;;;;;;;6292070;22;20045;-84
2022/07/30 08:05:47;;;;;;;;;;;;;;;;;;6292183;22;19941;-85
2022/07/30 08:08:13;;;;;;;;;;;;;;;;;;6290993;22;19915;-85
2022/07/30 08:10:39;;;;;;;;;;;;;;;;;;6295569;22;19992;-85
2022/07/30 08:13:06;;;;;;;;;;;;;;;;;;6290947;22;20257;-85
2022/07/30 08:15:32;;;;;;;;;;;;;;;;;;6292623;22;19956;-84
2022/07/30 08:17:58;;;;;;;;;;;;;;;;;;6289749;22;19918;-85
2022/07/30 08:20:25;;;;;;;;;;;;;;;;;;6320220;22;19993;-83
2022/07/30 08:22:51;;;;;;;;;;;;;;;;;;6324748;22;19963;-83
2022/07/30 08:25:45;;;;;;;;;;;;;;;;;;6276285;22;19961;-84
2022/07/30 08:28:11;;;;;;;;;;;;;;;;;;6293363;22;20201;-85
2022/07/30 08:30:42;;;;;;;;;;;;;;;;;;6322353;22;19921;-84
2022/07/30 08:33:09;;;;;;;;;;;;;;;;;;6322651;22;19923;-84
2022/07/30 08:35:36;;;;;;;;;;;;;;;;;;6298278;22;19921;-84
2022/07/30 08:38:02;;;;;;;;;;;;;;;;;;6317444;22;20408;-87
2022/07/30 08:40:33;;;;;;;;;;;;;;;;;;6324601;22;19914;-84
2022/07/30 08:43:00;;;;;;;;;;;;;;;;;;6324272;22;19942;-84
2022/07/30 08:45:27;;;;;;;;;;;;;;;;;;6327236;22;19915;-84
2022/07/30 08:47:53;;;;;;;;;;;;;;;;;;6328097;22;19921;-83
2022/07/30 08:50:20;;;;;;;;;;;;;;;;;;6326385;22;20313;-84
2022/07/30 08:52:48;;;;;;;;;;;;;;;;;;6327556;22;19914;-84
2022/07/30 08:55:15;;;;;;;;;;;;;;;;;;6299636;22;19923;-84
2022/07/30 08:57:44;;;;;;;;;;;;;;;;;;6329396;22;19914;-84
2022/07/30 09:00:13;;;;;;;;;;;;;;;;;;6321455;22;19914;-84
2022/07/30 09:02:40;;;;;;;;;;;;;;;;;;6326554;22;20342;-84
2022/07/30 09:05:07;;;;;;;;;;;;;;;;;;6299160;22;19921;-85
2022/07/30 09:07:34;;;;;;;;;;;;;;;;;;6325309;22;19918;-84
2022/07/30 09:10:01;;;;;;;;;;;;;;;;;;6322481;22;20334;-84
2022/07/30 09:12:28;;;;;;;;;;;;;;;;;;6300013;22;19942;-84
2022/07/30 09:14:56;;;;;;;;;;;;;;;;;;6325523;22;20593;-84
2022/07/30 09:17:22;;;;;;;;;;;;;;;;;;6327290;22;19918;-84
2022/07/30 09:19:50;;;;;;;;;;;;;;;;;;6330471;22;19915;-84
2022/07/30 09:22:17;;;;;;;;;;;;;;;;;;6323354;22;19922;-84
2022/07/30 09:24:44;;;;;;;;;;;;;;;;;;6328955;22;19910;-84
2022/07/30 09:27:11;;;;;;;;;;;;;;;;;;6321587;22;19921;-84
2022/07/30 09:29:38;;;;;;;;;;;;;;;;;;6324806;22;20434;-84
2022/07/30 09:32:05;;;;;;;;;;;;;;;;;;6293464;22;19973;-85
2022/07/30 09:34:33;;;;;;;;;;;;;;;;;;6296011;22;20504;-84
2022/07/30 09:37:00;;;;;;;;;;;;;;;;;;6290642;22;20532;-84
2022/07/30 09:39:27;;;;;;;;;;;;;;;;;;6323052;22;19934;-85
2022/07/30 09:41:57;;;;;;;;;;;;;;;;;;6324574;22;19947;-85
2022/07/30 09:44:25;;;;;;;;;;;;;;;;;;6301606;22;20285;-84
2022/07/30 09:46:53;;;;;;;;;;;;;;;;;;6328240;22;20047;-84
2022/07/30 09:49:19;;;;;;;;;;;;;;;;;;6328737;22;19914;-84
2022/07/30 09:51:46;;;;;;;;;;;;;;;;;;6298544;22;19914;-84
2022/07/30 09:54:14;;;;;;;;;;;;;;;;;;6318018;22;19915;-85
2022/07/30 09:56:45;;;;;;;;;;;;;;;;;;6296650;22;20343;-84
2022/07/30 09:59:14;;;;;;;;;;;;;;;;;;6292437;22;20347;-85
2022/07/30 10:01:41;;;;;;;;;;;;;;;;;;6293774;22;19922;-84
2022/07/30 10:04:09;;;;;;;;;;;;;;;;;;6291137;22;19911;-84
2022/07/30 10:06:35;;;;;;;;;;;;;;;;;;6293013;22;19985;-84
2022/07/30 10:09:03;;;;;;;;;;;;;;;;;;6290080;22;19980;-84
2022/07/30 10:11:29;;;;;;;;;;;;;;;;;;6294403;22;20356;-84
2022/07/30 10:13:59;;;;;;;;;;;;;;;;;;6291997;22;20044;-84
2022/07/30 10:16:27;;;;;;;;;;;;;;;;;;6265421;22;19971;-85
2022/07/30 10:18:56;;;;;;;;;;;;;;;;;;6286420;22;19915;-84
2022/07/30 10:21:27;;;;;;;;;;;;;;;;;;6291070;22;19914;-83
2022/07/30 10:23:54;;;;;;;;;;;;;;;;;;6292216;22;20236;-84
2022/07/30 10:26:24;;;;;;;;;;;;;;;;;;6293327;22;20368;-84
2022/07/30 10:28:51;;;;;;;;;;;;;;;;;;6320401;22;19910;-83
2022/07/30 10:31:18;;;;;;;;;;;;;;;;;;6286780;22;19915;-83
2022/07/30 10:33:44;;;;;;;;;;;;;;;;;;6292696;22;19938;-84
2022/07/30 10:36:11;;;;;;;;;;;;;;;;;;6261869;22;20378;-84
2022/07/30 10:38:37;;;;;;;;;;;;;;;;;;6291748;22;19918;-83
2022/07/30 10:41:04;;;;;;;;;;;;;;;;;;6286542;22;19918;-84
2022/07/30 10:43:45;;;;;;;;;;;;;;;;;;6286513;22;19915;-84
2022/07/30 10:46:16;;;;;;;;;;;;;;;;;;6257654;22;19914;-84
2022/07/30 10:48:43;;;;;;;;;;;;;;;;;;6286215;22;19914;-84
2022/07/30 10:51:25;;;;;;;;;;;;;;;;;;6221970;23;19919;-84
2022/07/30 10:53:52;;;;;;;;;;;;;;;;;;6198294;23;19923;-84
2022/07/30 10:56:18;;;;;;;;;;;;;;;;;;6222219;23;19916;-84
2022/07/30 10:58:46;;;;;;;;;;;;;;;;;;6199207;23;19915;-84
2022/07/30 11:01:13;;;;;;;;;;;;;;;;;;6220724;23;20367;-84
2022/07/30 11:03:45;;;;;;;;;;;;;;;;;;6223482;23;20209;-85
2022/07/30 11:06:13;;;;;;;;;;;;;;;;;;6199316;23;20034;-84
2022/07/30 11:08:41;;;;;;;;;;;;;;;;;;6204736;23;19957;-85
2022/07/30 11:11:08;;;;;;;;;;;;;;;;;;6225203;23;20257;-88
2022/07/30 11:13:34;;;;;;;;;;;;;;;;;;6231510;23;19915;-88
2022/07/30 11:16:16;;;;;;;;;;;;;;;;;;6190794;23;19919;-88
2022/07/30 11:18:47;;;;;;;;;;;;;;;;;;6192122;23;19915;-88
2022/07/30 11:21:20;;;;;;;;;;;;;;;;;;6167465;23;19915;-89
2022/07/30 11:23:53;;;;;;;;;;;;;;;;;;6169573;23;19954;-89
2022/07/30 11:26:20;;;;;;;;;;;;;;;;;;6167667;23;20317;-88
2022/07/30 11:28:46;;;;;;;;;;;;;;;;;;6211180;22;20257;-88
2022/07/30 11:31:13;;;;;;;;;;;;;;;;;;6227303;22;20953;-88
2022/07/30 11:33:43;;;;;;;;;;;;;;;;;;6255471;22;19976;-89
2022/07/30 11:36:11;;;;;;;;;;;;;;;;;;6252699;22;19948;-86
2022/07/30 11:38:38;;;;;;;;;;;;;;;;;;6254085;22;20239;-87
2022/07/30 11:41:20;;;;;;;;;;;;;;;;;;6256121;22;19952;-88
2022/07/30 11:43:47;;;;;;;;;;;;;;;;;;6260466;22;19989;-88
2022/07/30 11:46:24;;;;;;;;;;;;;;;;;;6256392;22;20062;-88
2022/07/30 11:48:51;;;;;;;;;;;;;;;;;;6264801;22;19914;-89
2022/07/30 11:51:18;;;;;;;;;;;;;;;;;;6263636;22;19921;-88
2022/07/30 11:53:46;;;;;;;;;;;;;;;;;;6305339;22;20023;-89
2022/07/30 11:56:15;;;;;;;;;;;;;;;;;;6321564;22;19921;-89
2022/07/30 11:58:43;;;;;;;;;;;;;;;;;;6296678;22;19950;-89
2022/07/30 12:01:10;;;;;;;;;;;;;;;;;;6319322;22;19922;-88
2022/07/30 12:03:38;;;;;;;;;;;;;;;;;;6324826;22;19914;-89
2022/07/30 12:06:04;;;;;;;;;;;;;;;;;;6291335;22;20327;-88
2022/07/30 12:08:32;;;;;;;;;;;;;;;;;;6294418;22;20368;-88
2022/07/30 12:11:08;;;;;;;;;;;;;;;;;;6318756;22;19914;-89
2022/07/30 12:13:37;;;;;;;;;;;;;;;;;;6317721;22;19953;-88
2022/07/30 12:16:03;;;;;;;;;;;;;;;;;;6291361;22;20123;-89
2022/07/30 12:18:30;;;;;;;;;;;;;;;;;;6293124;22;19981;-90
2022/07/30 12:20:57;;;;;;;;;;;;;;;;;;6316003;22;19936;-88
2022/07/30 12:23:27;;;;;;;;;;;;;;;;;;6319676;22;19973;-89
2022/07/30 12:25:55;;;;;;;;;;;;;;;;;;6319443;22;19914;-88
2022/07/30 12:28:23;;;;;;;;;;;;;;;;;;6319896;22;19914;-88
2022/07/30 12:31:09;;;;;;;;;;;;;;;;;;6282275;22;20889;-89
2022/07/30 12:33:37;;;;;;;;;;;;;;;;;;6259667;22;19960;-89
2022/07/30 12:36:03;;;;;;;;;;;;;;;;;;6280127;22;20654;-88
2022/07/30 12:38:31;;;;;;;;;;;;;;;;;;6284602;22;19915;-88
2022/07/30 12:40:58;;;;;;;;;;;;;;;;;;6257433;22;19914;-86
2022/07/30 12:43:24;;;;;;;;;;;;;;;;;;6259299;22;19978;-86
2022/07/30 12:45:51;;;;;;;;;;;;;;;;;;6259172;22;20690;-87
2022/07/30 12:48:19;;;;;;;;;;;;;;;;;;6258728;22;19922;-87
2022/07/30 12:50:55;;;;;;;;;;;;;;;;;;6285338;22;20251;-88
2022/07/30 12:53:23;;;;;;;;;;;;;;;;;;6288314;22;19918;-87
2022/07/30 12:55:50;;;;;;;;;;;;;;;;;;6263819;22;19915;-86
2022/07/30 12:58:22;;;;;;;;;;;;;;;;;;6263696;22;19953;-87
2022/07/30 13:00:54;;;;;;;;;;;;;;;;;;6259088;22;19915;-87
2022/07/30 13:03:21;;;;;;;;;;;;;;;;;;6262805;22;19914;-87
2022/07/30 13:05:55;;;;;;;;;;;;;;;;;;6263375;22;20256;-87
2022/07/30 13:08:34;;;;;;;;;;;;;;;;;;6263151;22;19922;-88
2022/07/30 13:11:04;;;;;;;;;;;;;;;;;;6259764;22;19918;-88
2022/07/30 13:13:33;;;;;;;;;;;;;;;;;;6288225;22;19919;-88
2022/07/30 13:16:09;;;;;;;;;;;;;;;;;;6258177;22;20284;-87
2022/07/30 13:18:36;;;;;;;;;;;;;;;;;;6287467;22;19918;-87
2022/07/30 13:21:23;;;;;;;;;;;;;;;;;;6198947;23;19966;-87
2022/07/30 13:23:50;;;;;;;;;;;;;;;;;;6199576;23;19947;-87
2022/07/30 13:26:17;;;;;;;;;;;;;;;;;;6198696;23;19918;-87
2022/07/30 13:28:45;;;;;;;;;;;;;;;;;;6203009;23;19915;-87
2022/07/30 13:31:12;;;;;;;;;;;;;;;;;;6199736;23;19976;-87
2022/07/30 13:33:40;;;;;;;;;;;;;;;;;;6201943;23;19919;-87
2022/07/30 13:36:07;;;;;;;;;;;;;;;;;;6201400;23;19957;-87
2022/07/30 13:38:57;;;;;;;;;;;;;;;;;;6166706;23;20066;-87
2022/07/30 13:41:24;;;;;;;;;;;;;;;;;;6144311;23;19916;-87
2022/07/30 13:43:51;;;;;;;;;;;;;;;;;;6138258;23;19916;-86
2022/07/30 13:46:21;;;;;;;;;;;;;;;;;;6139487;23;20026;-87
2022/07/30 13:48:49;;;;;;;;;;;;;;;;;;6143400;23;19912;-85
2022/07/30 13:51:35;;;;;;;;;;;;;;;;;;6144433;23;19931;-88
2022/07/30 13:54:03;;;;;;;;;;;;;;;;;;6130943;23;19920;-87
2022/07/30 13:56:32;;;;;;;;;;;;;;;;;;6179208;23;19922;-85
2022/07/30 13:58:59;;;;;;;;;;;;;;;;;;6170149;23;19915;-87
2022/07/30 14:01:29;;;;;;;;;;;;;;;;;;6200728;23;19912;-87
2022/07/30 14:03:57;;;;;;;;;;;;;;;;;;6197389;23;19916;-87
2022/07/30 14:06:23;;;;;;;;;;;;;;;;;;6172773;23;19920;-87
2022/07/30 14:08:56;;;;;;;;;;;;;;;;;;6196555;23;19915;-87
2022/07/30 14:11:25;;;;;;;;;;;;;;;;;;6173110;23;19954;-87
2022/07/30 14:13:56;;;;;;;;;;;;;;;;;;6172523;23;19916;-87
2022/07/30 14:16:24;;;;;;;;;;;;;;;;;;6197909;23;20317;-88
2022/07/30 14:18:51;;;;;;;;;;;;;;;;;;6169845;23;19992;-86
2022/07/30 14:21:17;;;;;;;;;;;;;;;;;;6167331;23;19986;-87
2022/07/30 14:23:59;;;;;;;;;;;;;;;;;;6286259;22;19988;-87
2022/07/30 14:26:25;;;;;;;;;;;;;;;;;;6289557;22;19918;-87
2022/07/30 14:29:06;;;;;;;;;;;;;;;;;;6194214;23;19923;-86
2022/07/30 14:31:33;;;;;;;;;;;;;;;;;;6198119;23;19919;-87
2022/07/30 14:33:59;;;;;;;;;;;;;;;;;;6171296;23;20377;-87
2022/07/30 14:36:28;;;;;;;;;;;;;;;;;;6172939;23;20279;-87
2022/07/30 14:38:57;;;;;;;;;;;;;;;;;;6168029;23;20003;-86
2022/07/30 14:41:23;;;;;;;;;;;;;;;;;;6142856;23;19992;-87
2022/07/30 14:43:51;;;;;;;;;;;;;;;;;;6163188;23;19963;-85
2022/07/30 14:46:29;;;;;;;;;;;;;;;;;;6145612;23;19943;-86
2022/07/30 14:48:58;;;;;;;;;;;;;;;;;;6162691;23;19937;-86
2022/07/30 14:51:25;;;;;;;;;;;;;;;;;;6145212;23;19916;-86
2022/07/30 14:53:52;;;;;;;;;;;;;;;;;;6156540;23;19919;-86
2022/07/30 14:56:24;;;;;;;;;;;;;;;;;;6174472;23;19923;-86
2022/07/30 14:58:53;;;;;;;;;;;;;;;;;;6148773;23;19937;-85
2022/07/30 15:01:20;;;;;;;;;;;;;;;;;;6234335;22;20000;-86
2022/07/30 15:04:01;;;;;;;;;;;;;;;;;;6195545;23;19918;-87
2022/07/30 15:06:29;;;;;;;;;;;;;;;;;;6171183;23;19994;-87
2022/07/30 15:09:10;;;;;;;;;;;;;;;;;;6206295;22;19911;-86
2022/07/30 15:11:36;;;;;;;;;;;;;;;;;;6208399;22;20395;-87
2022/07/30 15:14:03;;;;;;;;;;;;;;;;;;6231194;22;19957;-87
2022/07/30 15:16:32;;;;;;;;;;;;;;;;;;6259052;22;19915;-86
2022/07/30 15:19:00;;;;;;;;;;;;;;;;;;6253559;22;19981;-86
2022/07/30 15:21:27;;;;;;;;;;;;;;;;;;6232989;22;19911;-86
2022/07/30 15:23:54;;;;;;;;;;;;;;;;;;6233240;22;19922;-85
2022/07/30 15:26:36;;;;;;;;;;;;;;;;;;6258743;22;19952;-86
2022/07/30 15:29:09;;;;;;;;;;;;;;;;;;6229693;22;19915;-86
2022/07/30 15:31:36;;;;;;;;;;;;;;;;;;6234860;22;20330;-86
2022/07/30 15:34:03;;;;;;;;;;;;;;;;;;6258782;22;20399;-86
2022/07/30 15:36:30;;;;;;;;;;;;;;;;;;6292696;22;20316;-86
2022/07/30 15:38:57;;;;;;;;;;;;;;;;;;6290150;22;19914;-86
2022/07/30 15:41:24;;;;;;;;;;;;;;;;;;6294552;22;19915;-87
2022/07/30 15:44:01;;;;;;;;;;;;;;;;;;6290195;22;20339;-86
2022/07/30 15:46:28;;;;;;;;;;;;;;;;;;6289644;22;19911;-85
2022/07/30 15:48:54;;;;;;;;;;;;;;;;;;6293400;22;19921;-88
2022/07/30 15:51:21;;;;;;;;;;;;;;;;;;6293687;22;19933;-85
2022/07/30 15:53:48;;;;;;;;;;;;;;;;;;6304140;22;20353;-86
2022/07/30 15:56:17;;;;;;;;;;;;;;;;;;6296172;22;19946;-86
2022/07/30 15:58:53;;;;;;;;;;;;;;;;;;6327329;22;19915;-85
2022/07/30 16:01:34;;;;;;;;;;;;;;;;;;6198956;23;19943;-86
2022/07/30 16:04:01;;;;;;;;;;;;;;;;;;6196084;23;20023;-87
2022/07/30 16:06:28;;;;;;;;;;;;;;;;;;6172567;23;20321;-86
2022/07/30 16:08:54;;;;;;;;;;;;;;;;;;6175061;23;19915;-86
2022/07/30 16:11:21;;;;;;;;;;;;;;;;;;6200875;23;20317;-85
2022/07/30 16:13:49;;;;;;;;;;;;;;;;;;6175035;23;19916;-86
2022/07/30 16:16:28;;;;;;;;;;;;;;;;;;6196384;23;19912;-86
2022/07/30 16:18:54;;;;;;;;;;;;;;;;;;6174338;23;19938;-86
2022/07/30 16:21:22;;;;;;;;;;;;;;;;;;6149942;23;20337;-85
2022/07/30 16:24:03;;;;;;;;;;;;;;;;;;6109066;23;19913;-86
2022/07/30 16:26:29;;;;;;;;;;;;;;;;;;6109358;23;19913;-86
2022/07/30 16:29:00;;;;;;;;;;;;;;;;;;6081847;23;20352;-86
2022/07/30 16:31:25;;;;;;;;;;;;;;;;;;6061819;23;20327;-86
2022/07/30 16:34:06;;;;;;;;;;;;;;;;;;6049106;23;19922;-86
2022/07/30 16:36:34;;;;;;;;;;;;;;;;;;6051125;23;20441;-86
2022/07/30 16:39:01;;;;;;;;;;;;;;;;;;6083146;23;19920;-87
2022/07/30 16:41:28;;;;;;;;;;;;;;;;;;6143893;23;19912;-88
2022/07/30 16:43:54;;;;;;;;;;;;;;;;;;6142618;23;19923;-86
2022/07/30 16:46:23;;;;;;;;;;;;;;;;;;6170810;23;20248;-86
2022/07/30 16:48:58;;;;;;;;;;;;;;;;;;6144072;23;19983;-87
2022/07/30 16:51:25;;;;;;;;;;;;;;;;;;6121247;23;20023;-87
2022/07/30 16:53:54;;;;;;;;;;;;;;;;;;6137420;23;20222;-87
2022/07/30 16:56:40;;;;;;;;;;;;;;;;;;6197304;23;20007;-87
2022/07/30 16:59:06;;;;;;;;;;;;;;;;;;6196913;23;19922;-87
2022/07/30 17:01:33;;;;;;;;;;;;;;;;;;6199055;23;20421;-87
2022/07/30 17:04:00;;;;;;;;;;;;;;;;;;6200339;22;19987;-86